createdAt,value
2023-04-19T00:02:25.921Z,10.16
2023-04-19T00:04:54.454Z,10.13
2023-04-19T00:07:21.509Z,10.10
2023-04-19T00:09:48.697Z,10.12
2023-04-19T00:12:15.654Z,10.16
2023-04-19T00:14:42.508Z,10.12
2023-04-19T00:17:09.436Z,10.08
2023-04-19T00:19:36.537Z,10.12
2023-04-19T00:22:04.841Z,10.14
2023-04-19T00:24:31.853Z,10.16
2023-04-19T00:26:59.029Z,10.15
2023-04-19T00:29:25.976Z,10.09
2023-04-19T00:31:52.896Z,10.14
2023-04-19T00:34:19.935Z,10.14
2023-04-19T00:36:46.840Z,10.15
2023-04-19T00:39:15.058Z,10.18
2023-04-19T00:41:42.174Z,10.28
2023-04-19T00:44:09.258Z,10.36
2023-04-19T00:46:39.325Z,10.33
2023-04-19T00:49:06.646Z,10.38
2023-04-19T00:51:34.416Z,10.41
2023-04-19T00:54:03.271Z,10.44
2023-04-19T00:56:35.257Z,10.52
2023-04-19T00:59:27.035Z,10.60
2023-04-19T01:01:54.323Z,10.65
2023-04-19T01:04:21.714Z,10.70
2023-04-19T01:06:48.766Z,10.77
2023-04-19T01:09:16.036Z,10.80
2023-04-19T01:11:44.202Z,10.81
2023-04-19T01:14:11.274Z,10.84
2023-04-19T01:16:38.405Z,10.88
2023-04-19T01:19:05.307Z,10.86
2023-04-19T01:21:32.194Z,10.84
2023-04-19T01:24:00.386Z,10.78
2023-04-19T01:26:27.585Z,10.79
2023-04-19T01:28:54.663Z,10.78
2023-04-19T01:31:21.736Z,10.73
2023-04-19T01:33:48.750Z,10.72
2023-04-19T01:36:15.585Z,10.66
2023-04-19T01:38:42.492Z,10.63
2023-04-19T01:41:11.230Z,10.58
2023-04-19T01:43:38.218Z,10.58
2023-04-19T01:46:05.330Z,10.53
2023-04-19T01:48:32.370Z,10.26
2023-04-19T01:51:00.921Z,10.18
2023-04-19T01:53:28.008Z,10.20
2023-04-19T01:55:56.037Z,10.30
2023-04-19T01:58:24.328Z,10.36
2023-04-19T02:05:42.652Z,10.58
2023-04-19T02:08:09.681Z,10.64
2023-04-19T02:10:36.634Z,10.66
2023-04-19T02:13:03.542Z,10.62
2023-04-19T02:15:32.018Z,10.63
2023-04-19T02:17:59.274Z,10.65
2023-04-19T02:20:26.258Z,10.59
2023-04-19T02:22:53.220Z,10.59
2023-04-19T02:25:20.165Z,10.58
2023-04-19T02:27:47.279Z,10.44
2023-04-19T02:30:14.667Z,10.45
2023-04-19T02:32:43.102Z,10.48
2023-04-19T02:35:10.022Z,10.47
2023-04-19T02:37:36.938Z,10.43
2023-04-19T02:40:04.944Z,10.41
2023-04-19T02:42:32.037Z,10.45
2023-04-19T02:44:59.865Z,10.41
2023-04-19T02:47:26.883Z,10.39
2023-04-19T02:49:55.355Z,10.34
2023-04-19T02:52:22.694Z,10.36
2023-04-19T02:54:49.597Z,10.33
2023-04-19T02:57:16.670Z,10.34
2023-04-19T02:59:44.541Z,10.37
2023-04-19T03:02:11.891Z,10.40
2023-04-19T03:04:39.299Z,10.39
2023-04-19T03:07:15.895Z,10.32
2023-04-19T03:09:44.402Z,10.24
2023-04-19T03:12:13.141Z,10.22
2023-04-19T03:14:43.191Z,10.20
2023-04-19T03:17:10.257Z,10.21
2023-04-19T03:19:37.370Z,10.24
2023-04-19T03:22:05.085Z,10.12
2023-04-19T03:24:37.070Z,10.00
2023-04-19T03:27:16.055Z,10.00
2023-04-19T03:29:46.693Z,10.01
2023-04-19T03:32:15.356Z,9.91
2023-04-19T03:34:42.751Z,9.94
2023-04-19T03:37:11.600Z,9.94
2023-04-19T03:39:40.084Z,9.89
2023-04-19T03:42:10.738Z,9.73
2023-04-19T03:44:58.589Z,9.80
2023-04-19T03:47:27.000Z,9.77
2023-04-19T03:49:56.833Z,9.86
2023-04-19T03:52:24.081Z,9.98
2023-04-19T03:54:52.706Z,10.12
2023-04-19T03:58:48.972Z,10.17
2023-04-19T04:01:19.498Z,10.32
2023-04-19T04:03:47.040Z,10.22
2023-04-19T04:06:14.072Z,10.36
2023-04-19T04:08:41.405Z,10.29
2023-04-19T04:11:10.638Z,10.26
2023-04-19T04:13:37.744Z,10.30
2023-04-19T04:16:15.438Z,10.24
2023-04-19T04:18:42.536Z,10.18
2023-04-19T04:22:08.338Z,10.13
2023-04-19T04:24:40.593Z,10.00
2023-04-19T04:27:22.768Z,9.96
2023-04-19T04:29:52.949Z,9.83
2023-04-19T04:32:20.133Z,9.79
2023-04-19T04:34:47.389Z,9.74
2023-04-19T04:38:33.446Z,9.73
2023-04-19T04:41:35.613Z,9.73
2023-04-19T04:47:09.714Z,9.81
2023-04-19T04:49:47.281Z,9.98
2023-04-19T04:52:14.471Z,10.16
2023-04-19T04:54:52.539Z,10.37
2023-04-19T04:57:38.325Z,10.67
2023-04-19T05:00:09.506Z,10.89
2023-04-19T05:02:45.553Z,11.06
2023-04-19T05:05:12.785Z,11.32
2023-04-19T05:07:40.303Z,11.61
2023-04-19T05:10:08.907Z,11.76
2023-04-19T05:12:44.009Z,12.05
2023-04-19T05:15:10.981Z,12.31
2023-04-19T05:17:39.754Z,12.44
2023-04-19T05:20:09.862Z,12.28
2023-04-19T05:22:37.671Z,12.07
2023-04-19T05:25:10.625Z,12.25
2023-04-19T05:27:38.714Z,12.57
2023-04-19T05:30:07.619Z,12.99
2023-04-19T05:32:39.332Z,13.47
2023-04-19T05:35:11.592Z,13.88
2023-04-19T05:37:39.472Z,14.29
2023-04-19T05:40:08.255Z,14.75
2023-04-19T05:42:36.022Z,14.91
2023-04-19T05:45:06.018Z,15.12
2023-04-19T05:47:33.582Z,15.16
2023-04-19T05:50:26.042Z,15.31
2023-04-19T05:53:20.602Z,15.77
2023-04-19T05:55:47.625Z,15.86
2023-04-19T05:58:15.277Z,16.77
2023-04-19T06:00:42.415Z,16.86
2023-04-19T06:03:13.033Z,17.25
2023-04-19T06:05:41.986Z,17.73
2023-04-19T06:08:09.140Z,16.46
2023-04-19T06:10:52.774Z,17.04
2023-04-19T06:13:23.368Z,17.41
2023-04-19T06:15:50.531Z,17.69
2023-04-19T06:18:19.031Z,17.98
2023-04-19T06:20:48.489Z,17.85
2023-04-19T06:23:15.609Z,17.90
2023-04-19T06:25:42.865Z,18.06
2023-04-19T06:28:10.190Z,18.15
2023-04-19T06:30:41.021Z,16.67
2023-04-19T06:33:08.276Z,17.50
2023-04-19T06:35:35.386Z,17.83
2023-04-19T06:38:03.772Z,16.87
2023-04-19T06:40:30.716Z,17.47
2023-04-19T06:42:57.700Z,15.88
2023-04-19T06:45:28.281Z,15.67
2023-04-19T06:47:55.176Z,15.25
2023-04-19T06:50:22.433Z,14.83
2023-04-19T06:52:49.383Z,14.19
2023-04-19T06:55:17.964Z,13.97
2023-04-19T06:57:45.412Z,13.74
2023-04-19T07:00:14.331Z,14.05
2023-04-19T07:02:42.486Z,14.09
2023-04-19T07:05:10.019Z,15.06
2023-04-19T07:07:36.983Z,16.69
2023-04-19T07:10:04.615Z,17.93
2023-04-19T07:12:33.458Z,18.94
2023-04-19T07:15:00.777Z,18.81
2023-04-19T07:17:28.013Z,19.43
2023-04-19T07:19:55.015Z,19.90
2023-04-19T07:22:21.970Z,20.49
2023-04-19T07:24:49.491Z,20.68
2023-04-19T07:27:16.784Z,21.30
2023-04-19T07:29:45.754Z,20.99
2023-04-19T07:32:12.853Z,17.85
2023-04-19T07:34:41.257Z,17.42
2023-04-19T07:37:08.324Z,17.18
2023-04-19T07:39:36.331Z,17.60
2023-04-19T07:42:03.452Z,17.15
2023-04-19T07:44:30.722Z,16.14
2023-04-19T07:46:59.983Z,16.07
2023-04-19T07:49:27.138Z,15.37
2023-04-19T07:51:54.232Z,16.41
2023-04-19T07:54:21.281Z,16.85
2023-04-19T07:56:48.863Z,16.31
2023-04-19T07:59:16.329Z,16.82
2023-04-19T08:01:43.325Z,17.53
2023-04-19T08:04:12.023Z,17.81
2023-04-19T08:06:39.779Z,17.22
2023-04-19T08:09:07.001Z,17.15
2023-04-19T08:11:34.179Z,16.62
2023-04-19T08:16:59.255Z,14.51
2023-04-19T08:19:19.172Z,12.37
2023-04-19T08:21:46.179Z,12.36
2023-04-19T08:24:13.627Z,12.68
2023-04-19T08:26:40.938Z,13.19
2023-04-19T08:29:07.940Z,12.96
2023-04-19T08:31:34.824Z,13.12
2023-04-19T08:34:02.892Z,13.28
2023-04-19T08:36:39.184Z,13.50
2023-04-19T08:39:20.908Z,13.80
2023-04-19T08:42:07.452Z,13.91
2023-04-19T08:44:45.052Z,14.11
2023-04-19T08:47:32.281Z,14.21
2023-04-19T08:52:51.798Z,13.93
2023-04-19T08:55:20.263Z,13.34
2023-04-19T08:57:47.259Z,13.08
2023-04-19T09:00:15.828Z,12.35
2023-04-19T09:02:48.307Z,12.35
2023-04-19T09:05:17.478Z,12.38
2023-04-19T09:07:47.827Z,12.46
2023-04-19T09:10:17.401Z,12.64
2023-04-19T09:13:01.254Z,12.70
2023-04-19T09:15:38.337Z,12.80
2023-04-19T09:18:07.105Z,12.87
2023-04-19T09:20:42.979Z,13.45
2023-04-19T09:23:14.039Z,13.97
2023-04-19T09:28:26.761Z,14.39
2023-04-19T09:31:05.610Z,14.09
2023-04-19T09:33:38.756Z,14.25
2023-04-19T09:36:08.596Z,13.68
2023-04-19T09:38:49.547Z,12.98
2023-04-19T09:41:20.968Z,13.10
2023-04-19T09:46:33.466Z,12.58
2023-04-19T09:49:33.688Z,12.74
2023-04-19T09:52:05.798Z,12.29
2023-04-19T09:54:34.539Z,12.32
2023-04-19T09:57:02.377Z,12.20
2023-04-19T09:59:29.571Z,12.20
2023-04-19T10:02:01.026Z,12.36
2023-04-19T10:04:38.382Z,12.34
2023-04-19T10:07:29.148Z,12.01
2023-04-19T10:10:15.764Z,12.30
2023-04-19T10:13:11.533Z,12.00
2023-04-19T10:15:50.237Z,12.06
2023-04-19T10:18:21.738Z,11.97
2023-04-19T10:20:58.456Z,12.03
2023-04-19T10:23:25.576Z,11.96
2023-04-19T10:25:58.422Z,11.93
2023-04-19T10:28:28.593Z,11.81
2023-04-19T10:31:00.624Z,11.76
2023-04-19T10:33:30.374Z,11.96
2023-04-19T10:35:59.570Z,12.03
2023-04-19T10:38:39.025Z,11.95
2023-04-19T10:41:09.134Z,11.93
2023-04-19T10:43:38.144Z,12.05
2023-04-19T10:46:09.024Z,12.16
2023-04-19T10:48:49.693Z,12.28
2023-04-19T10:51:18.323Z,12.31
2023-04-19T10:53:57.652Z,12.05
2023-04-19T10:57:09.132Z,11.96
2023-04-19T10:59:40.668Z,12.04
2023-04-19T11:02:28.967Z,12.16
2023-04-19T11:05:03.487Z,12.30
2023-04-19T11:07:38.786Z,12.22
2023-04-19T11:10:08.755Z,12.26
2023-04-19T11:12:42.884Z,12.20
2023-04-19T11:15:10.442Z,12.00
2023-04-19T11:17:37.371Z,12.07
2023-04-19T11:20:07.564Z,11.74
2023-04-19T11:22:36.388Z,11.76
2023-04-19T11:25:12.057Z,11.83
2023-04-19T11:27:42.221Z,11.81
2023-04-19T11:30:12.389Z,11.80
2023-04-19T11:32:45.984Z,11.35
2023-04-19T11:35:13.822Z,11.30
2023-04-19T11:37:40.758Z,11.27
2023-04-19T11:40:14.247Z,11.18
2023-04-19T11:42:43.093Z,11.17
2023-04-19T11:45:25.946Z,11.05
2023-04-19T11:47:56.641Z,10.97
2023-04-19T11:50:38.673Z,10.99
2023-04-19T11:53:13.889Z,10.95
2023-04-19T11:55:44.767Z,10.95
2023-04-19T11:58:26.922Z,10.92
2023-04-19T12:00:54.036Z,10.95
2023-04-19T12:03:25.484Z,10.80
2023-04-19T12:05:56.155Z,10.75
2023-04-19T12:08:35.298Z,10.73
2023-04-19T12:11:05.175Z,10.93
2023-04-19T12:13:35.143Z,10.93
2023-04-19T12:16:02.620Z,10.87
2023-04-19T12:18:43.610Z,10.88
2023-04-19T12:21:12.146Z,10.85
2023-04-19T12:23:39.451Z,10.90
2023-04-19T12:26:07.469Z,11.08
2023-04-19T12:28:35.792Z,11.21
2023-04-19T12:31:03.109Z,11.35
2023-04-19T12:33:30.369Z,11.27
2023-04-19T12:35:57.234Z,11.54
2023-04-19T12:38:24.155Z,11.60
2023-04-19T12:40:51.615Z,11.92
2023-04-19T12:43:18.668Z,11.64
2023-04-19T12:45:47.073Z,11.70
2023-04-19T12:48:14.056Z,11.85
2023-04-19T12:50:41.262Z,12.01
2023-04-19T12:53:08.565Z,11.99
2023-04-19T12:55:35.406Z,12.06
2023-04-19T12:58:02.745Z,12.34
2023-04-19T13:00:29.626Z,12.44
2023-04-19T13:02:58.428Z,12.36
2023-04-19T13:05:25.516Z,12.30
2023-04-19T13:07:52.415Z,12.17
2023-04-19T13:10:19.454Z,12.58
2023-04-19T13:12:47.864Z,12.99
2023-04-19T13:15:15.068Z,13.20
2023-04-19T13:17:41.995Z,13.20
2023-04-19T13:20:11.785Z,13.54
2023-04-19T13:22:38.791Z,13.82
2023-04-19T13:25:07.121Z,14.16
2023-04-19T13:27:34.699Z,14.46
2023-04-19T13:30:01.949Z,14.79
2023-04-19T13:32:29.566Z,14.65
2023-04-19T13:34:56.861Z,14.76
2023-04-19T13:37:25.313Z,14.51
2023-04-19T13:39:53.988Z,14.68
2023-04-19T13:42:23.705Z,14.81
2023-04-19T13:44:50.786Z,14.99
2023-04-19T13:47:20.508Z,15.22
2023-04-19T13:50:07.119Z,15.36
2023-04-19T13:52:45.531Z,15.08
2023-04-19T13:55:14.124Z,15.29
2023-04-19T13:57:41.351Z,15.45
2023-04-19T14:00:09.535Z,15.61
2023-04-19T14:02:42.278Z,15.15
2023-04-19T14:05:10.029Z,14.26
2023-04-19T14:07:49.568Z,14.20
2023-04-19T14:10:16.702Z,14.03
2023-04-19T14:12:44.135Z,13.87
2023-04-19T14:15:12.075Z,14.12
2023-04-19T14:17:39.292Z,13.95
2023-04-19T14:20:07.961Z,14.08
2023-04-19T14:22:35.428Z,13.74
2023-04-19T14:25:04.892Z,13.63
2023-04-19T14:27:32.534Z,13.57
2023-04-19T14:29:59.968Z,13.48
2023-04-19T14:32:28.378Z,13.36
2023-04-19T14:34:55.902Z,13.30
2023-04-19T14:37:23.951Z,13.38
2023-04-19T14:42:39.607Z,13.42
2023-04-19T14:45:08.681Z,13.27
2023-04-19T14:47:37.508Z,13.26
2023-04-19T14:50:07.682Z,13.35
2023-04-19T14:58:52.665Z,13.66
2023-04-19T15:01:20.961Z,13.76
2023-04-19T15:03:48.384Z,13.85
2023-04-19T15:06:16.105Z,13.82
2023-04-19T15:08:43.137Z,13.72
2023-04-19T15:11:10.610Z,13.75
2023-04-19T15:13:37.764Z,13.83
2023-04-19T15:16:07.345Z,13.62
2023-04-19T15:18:35.002Z,13.73
2023-04-19T15:21:03.133Z,13.70
2023-04-19T15:23:30.363Z,13.70
2023-04-19T15:25:57.550Z,13.77
2023-04-19T15:28:25.328Z,13.73
2023-04-19T15:30:59.826Z,13.83
2023-04-19T15:33:28.560Z,13.96
2023-04-19T15:35:57.267Z,13.96
2023-04-19T15:39:07.701Z,13.83
2023-04-19T15:41:38.312Z,13.87
2023-04-19T15:46:50.767Z,13.81
2023-04-19T15:49:19.995Z,13.77
2023-04-19T15:51:47.799Z,13.83
2023-04-19T15:54:15.445Z,13.83
2023-04-19T15:56:43.917Z,13.73
2023-04-19T15:59:10.993Z,13.70
2023-04-19T16:01:38.070Z,13.67
2023-04-19T16:04:05.543Z,13.64
2023-04-19T16:06:34.329Z,13.62
2023-04-19T16:09:01.984Z,13.50
2023-04-19T16:11:29.149Z,13.40
2023-04-19T16:13:56.109Z,13.37
2023-04-19T16:16:23.039Z,13.30
2023-04-19T16:18:50.882Z,13.29
2023-04-19T16:21:18.352Z,13.24
2023-04-19T16:23:47.005Z,13.11
2023-04-19T16:26:40.838Z,13.06
2023-04-19T16:29:07.921Z,13.08
2023-04-19T16:31:35.352Z,13.02
2023-04-19T16:34:09.654Z,12.98
2023-04-19T16:36:39.592Z,12.95
2023-04-19T16:39:08.403Z,12.93
2023-04-19T16:41:44.541Z,12.99
2023-04-19T16:44:14.299Z,12.96
2023-04-19T16:46:43.029Z,12.96
2023-04-19T16:49:11.027Z,13.00
2023-04-19T16:51:38.219Z,13.04
2023-04-19T16:54:05.292Z,12.97
2023-04-19T16:56:33.671Z,13.03
2023-04-19T16:59:05.259Z,12.94
2023-04-19T17:01:33.322Z,12.98
2023-04-19T17:04:00.750Z,12.89
2023-04-19T17:06:30.188Z,12.85
2023-04-19T17:09:05.982Z,12.79
2023-04-19T17:11:34.601Z,12.81
2023-04-19T17:14:01.744Z,12.75
2023-04-19T17:16:29.265Z,12.70
2023-04-19T17:18:56.701Z,12.68
2023-04-19T17:24:07.884Z,12.57
2023-04-19T17:26:36.424Z,12.60
2023-04-19T17:29:03.759Z,12.49
2023-04-19T17:31:31.013Z,12.46
2023-04-19T17:34:01.065Z,12.44
2023-04-19T17:36:28.190Z,12.44
2023-04-19T17:44:41.895Z,12.23
2023-04-19T17:47:09.237Z,12.18
2023-04-19T17:49:44.935Z,12.11
2023-04-19T17:52:27.790Z,12.00
2023-04-19T17:54:55.150Z,11.90
2023-04-19T17:57:22.004Z,11.87
2023-04-19T17:59:50.418Z,11.81
2023-04-19T18:02:17.616Z,11.74
2023-04-19T18:09:05.117Z,11.61
2023-04-19T18:11:32.014Z,11.54
2023-04-19T18:14:14.552Z,11.49
2023-04-19T18:16:44.206Z,11.42
2023-04-19T18:19:33.633Z,11.33
2023-04-19T18:22:25.722Z,11.27
2023-04-19T18:25:02.347Z,11.26
2023-04-19T18:27:43.354Z,11.44
2023-04-19T18:30:16.637Z,11.11
2023-04-19T18:32:57.415Z,11.05
2023-04-19T18:36:04.322Z,11.09
2023-04-19T18:38:49.199Z,10.92
2023-04-19T18:41:44.693Z,10.87
2023-04-19T18:44:38.900Z,10.94
2023-04-19T18:47:22.526Z,10.70
2023-04-19T18:50:03.742Z,10.75
2023-04-19T18:52:39.380Z,10.68
2023-04-19T18:55:09.877Z,10.66
2023-04-19T18:57:37.280Z,10.61
2023-04-19T19:05:02.319Z,10.53
2023-04-19T19:10:49.807Z,10.41
2023-04-19T19:19:35.365Z,10.20
2023-04-19T19:22:28.627Z,10.13
2023-04-19T19:24:56.108Z,10.07
2023-04-19T19:27:23.721Z,10.00
2023-04-19T19:29:53.864Z,9.96
2023-04-19T19:32:21.284Z,9.95
2023-04-19T19:34:56.313Z,9.91
2023-04-19T19:37:30.258Z,9.81
2023-04-19T19:39:57.176Z,9.73
2023-04-19T19:42:30.607Z,9.68
2023-04-19T19:47:46.663Z,9.57
2023-04-19T19:52:47.590Z,9.46
2023-04-19T19:55:15.013Z,9.48
2023-04-19T20:00:36.508Z,9.45
2023-04-19T20:03:01.021Z,9.32
2023-04-19T20:05:29.135Z,9.19
2023-04-19T20:08:08.582Z,9.19
2023-04-19T20:10:37.429Z,9.20
2023-04-19T20:13:04.783Z,9.25
2023-04-19T20:15:34.497Z,9.29
2023-04-19T20:18:01.824Z,9.29
2023-04-19T20:20:29.000Z,9.27
2023-04-19T20:22:56.306Z,9.24
2023-04-19T20:25:24.538Z,9.22
2023-04-19T20:27:51.448Z,9.23
2023-04-19T20:30:18.448Z,9.23
2023-04-19T20:33:42.538Z,9.17
2023-04-19T20:36:15.795Z,9.16
2023-04-19T20:38:46.339Z,9.16
2023-04-19T20:41:17.610Z,8.97
2023-04-19T20:43:47.268Z,9.01
2023-04-19T20:46:16.581Z,8.94
2023-04-19T20:48:43.745Z,8.80
2023-04-19T20:51:10.621Z,8.83
2023-04-19T20:53:37.412Z,8.69
2023-04-19T20:56:04.914Z,8.44
2023-04-19T20:58:33.145Z,8.38
2023-04-19T21:01:00.201Z,8.36
2023-04-19T21:03:27.252Z,8.35
2023-04-19T21:05:54.171Z,8.39
2023-04-19T21:08:23.624Z,8.43
2023-04-19T21:10:50.551Z,8.43
2023-04-19T21:13:17.447Z,8.46
2023-04-19T21:15:45.712Z,8.55
2023-04-19T21:18:12.737Z,8.66
2023-04-19T21:20:39.600Z,8.80
2023-04-19T21:23:07.103Z,8.90
2023-04-19T21:25:34.001Z,8.86
2023-04-19T21:28:01.177Z,8.84
2023-04-19T21:30:28.449Z,8.78
2023-04-19T21:32:56.707Z,8.75
2023-04-19T21:35:23.727Z,8.72
2023-04-19T21:37:50.621Z,8.68
2023-04-19T21:40:17.651Z,8.62
2023-04-19T21:42:44.818Z,8.58
2023-04-19T21:45:11.790Z,8.55
2023-04-19T21:47:38.863Z,8.38
2023-04-19T21:50:09.388Z,8.23
2023-04-19T21:52:36.275Z,8.21
2023-04-19T21:55:04.343Z,8.19
2023-04-19T21:57:32.091Z,8.18
2023-04-19T21:59:59.565Z,8.16
2023-04-19T22:02:26.499Z,8.13
2023-04-19T22:04:53.438Z,8.11
2023-04-19T22:07:21.611Z,8.07
2023-04-19T22:09:48.488Z,8.04
2023-04-19T22:12:15.463Z,8.03
2023-04-19T22:14:42.347Z,8.00
2023-04-19T22:17:09.361Z,7.95
2023-04-19T22:20:29.264Z,7.86
2023-04-19T22:23:05.921Z,7.84
2023-04-19T22:25:33.631Z,7.84
2023-04-19T22:28:00.562Z,7.83
2023-04-19T22:30:27.506Z,7.81
2023-04-19T22:32:54.761Z,7.78
2023-04-19T22:35:22.819Z,7.72
2023-04-19T22:37:50.544Z,7.67
2023-04-19T22:40:50.106Z,7.62
2023-04-19T22:43:22.934Z,7.61
2023-04-19T22:45:53.920Z,7.51
2023-04-19T22:48:20.819Z,7.41
2023-04-19T22:50:47.692Z,7.37
2023-04-19T22:53:14.619Z,7.18
2023-04-19T22:55:43.113Z,7.25
2023-04-19T22:58:10.405Z,7.38
2023-04-19T23:00:38.385Z,7.42
2023-04-19T23:03:06.973Z,7.37
2023-04-19T23:05:33.904Z,7.26
2023-04-19T23:08:00.818Z,7.25
2023-04-19T23:10:28.068Z,7.08
2023-04-19T23:12:56.376Z,7.05
2023-04-19T23:15:25.067Z,6.69
2023-04-19T23:17:52.514Z,6.60
2023-04-19T23:20:22.044Z,6.65
2023-04-19T23:22:49.069Z,6.71
2023-04-19T23:25:16.601Z,6.78
2023-04-19T23:27:43.681Z,6.77
2023-04-19T23:30:12.763Z,6.77
2023-04-19T23:32:43.347Z,6.76
2023-04-19T23:35:11.184Z,6.75
2023-04-19T23:37:38.167Z,6.72
2023-04-19T23:40:07.106Z,6.70
2023-04-19T23:42:34.130Z,6.69
2023-04-19T23:45:01.406Z,6.66
2023-04-19T23:47:29.738Z,6.56
2023-04-19T23:49:56.758Z,6.27
2023-04-19T23:52:43.517Z,6.10
2023-04-19T23:55:10.685Z,5.84
2023-04-19T23:57:38.018Z,5.69
